Time;durP1;ratioP1;P1;durP2;ratioP2;P2;SDS_P1;SDS_P2;PMS_P1;PMS_P2;Temp;Humidity;BMP_temperature;BMP_pressure;BME280_temperature;BME280_humidity;BME280_pressure;Samples;Min_cycle;Max_cycle;Signal;HPM_P1;HPM_P2
2024/04/15 00:00:41;;;;;;;8.98;5.05;;;;;;;12.57;100.00;101473.63;5642524;26;20014;-73
2024/04/15 00:03:12;;;;;;;8.40;4.45;;;;;;;12.50;100.00;101465.44;5643872;26;20403;-75
2024/04/15 00:05:44;;;;;;;10.18;5.00;;;;;;;12.43;100.00;101468.72;5673792;26;20013;-74
2024/04/15 00:08:16;;;;;;;10.07;5.13;;;;;;;12.35;100.00;101451.78;5677701;26;20430;-75
2024/04/15 00:10:50;;;;;;;6.95;4.90;;;;;;;12.42;100.00;101459.97;5674781;26;20002;-74
2024/04/15 00:13:22;;;;;;;6.47;4.78;;;;;;;12.39;100.00;101457.63;5680980;26;20566;-75
2024/04/15 00:15:55;;;;;;;6.55;4.45;;;;;;;12.35;100.00;101451.78;5674736;26;20006;-75
2024/04/15 00:18:27;;;;;;;6.38;4.70;;;;;;;12.31;100.00;101446.88;5640504;26;20017;-73
2024/04/15 00:21:00;;;;;;;8.02;4.30;;;;;;;12.27;100.00;101451.56;5676286;26;19999;-74
2024/04/15 00:23:32;;;;;;;8.45;4.57;;;;;;;12.31;100.00;101436.38;5675216;26;20010;-74
2024/04/15 00:26:04;;;;;;;10.23;5.20;;;;;;;12.24;100.00;101428.19;5672425;26;20007;-74
2024/04/15 00:28:36;;;;;;;12.17;5.20;;;;;;;12.27;100.00;101425.28;5672848;26;20065;-74
2024/04/15 00:31:08;;;;;;;9.43;5.85;;;;;;;12.21;100.00;101428.44;5671442;26;20254;-74
2024/04/15 00:33:40;;;;;;;9.80;5.55;;;;;;;12.18;100.00;101416.38;5675545;26;20002;-73
2024/04/15 00:36:12;;;;;;;9.82;6.05;;;;;;;12.14;100.00;101411.50;5643894;26;20460;-74
2024/04/15 00:38:43;;;;;;;8.93;4.97;;;;;;;12.11;100.00;101409.97;5678661;26;20014;-72
2024/04/15 00:41:15;;;;;;;8.43;5.40;;;;;;;12.11;100.00;101409.13;5672861;26;20051;-74
2024/04/15 00:43:47;;;;;;;10.63;5.15;;;;;;;11.99;100.00;101394.38;5647221;26;20381;-72
2024/04/15 00:46:19;;;;;;;6.95;5.22;;;;;;;12.01;100.00;101395.94;5634448;26;20035;-73
2024/04/15 00:48:53;;;;;;;9.20;4.78;;;;;;;11.92;100.00;101386.16;5673105;26;20047;-76
2024/04/15 00:51:26;;;;;;;8.10;4.85;;;;;;;11.93;100.00;101372.06;5671310;26;20043;-72
2024/04/15 00:53:58;;;;;;;10.20;5.57;;;;;;;11.89;100.00;101368.03;5642981;26;20035;-72
2024/04/15 00:56:30;;;;;;;7.80;5.78;;;;;;;11.89;100.00;101355.75;5671670;26;20035;-73
2024/04/15 00:59:03;;;;;;;9.52;5.55;;;;;;;11.67;100.00;101340.06;5671837;26;20488;-73
2024/04/15 01:01:36;;;;;;;8.75;5.55;;;;;;;11.73;100.00;101350.06;5666538;26;20035;-73
2024/04/15 01:04:08;;;;;;;8.82;5.45;;;;;;;11.76;100.00;101359.47;5674007;26;20017;-73
2024/04/15 01:06:41;;;;;;;9.70;5.43;;;;;;;11.63;100.00;101344.75;5672795;26;20007;-72
2024/04/15 01:09:12;;;;;;;10.53;5.27;;;;;;;11.67;100.00;101348.78;5665293;26;20035;-73
2024/04/15 01:11:44;;;;;;;8.32;5.07;;;;;;;11.62;100.00;101347.47;5671039;26;20010;-75
2024/04/15 01:14:16;;;;;;;9.38;5.38;;;;;;;11.46;100.00;101326.88;5674239;26;20002;-72
2024/04/15 01:16:48;;;;;;;7.93;4.43;;;;;;;11.54;100.00;101339.38;5675592;26;20005;-72
2024/04/15 01:19:20;;;;;;;9.25;4.90;;;;;;;11.50;100.00;101332.72;5675112;26;20452;-73
2024/04/15 01:21:52;;;;;;;8.85;4.93;;;;;;;11.46;100.00;101334.75;5676685;26;20335;-72
2024/04/15 01:24:24;;;;;;;8.35;4.72;;;;;;;11.40;100.00;101330.84;5672642;26;20014;-73
2024/04/15 01:26:56;;;;;;;8.23;4.07;;;;;;;11.38;100.00;101330.13;5673820;26;20030;-73
2024/04/15 01:29:28;;;;;;;7.03;3.92;;;;;;;11.38;100.00;101332.75;5672647;26;20029;-76
2024/04/15 01:32:00;;;;;;;7.50;4.20;;;;;;;11.39;100.00;101339.66;5641377;26;20010;-73
2024/04/15 01:34:32;;;;;;;10.25;4.00;;;;;;;11.30;100.00;101329.91;5673335;26;20018;-73
2024/04/15 01:37:04;;;;;;;8.52;4.40;;;;;;;11.27;100.00;101332.78;5675621;26;20031;-72
2024/04/15 01:39:36;;;;;;;10.85;4.25;;;;;;;11.27;100.00;101334.56;5677515;26;20059;-75
2024/04/15 01:42:07;;;;;;;5.95;3.10;;;;;;;11.18;100.00;101325.66;5681014;26;20013;-72
2024/04/15 01:44:39;;;;;;;6.35;3.95;;;;;;;11.17;100.00;101329.22;5677426;26;20006;-72
2024/04/15 01:47:11;;;;;;;8.43;3.90;;;;;;;11.12;100.00;101326.13;5681309;26;20017;-73
2024/04/15 01:49:43;;;;;;;6.90;3.60;;;;;;;11.05;100.00;101311.84;5672546;26;20014;-75
2024/04/15 01:52:15;;;;;;;7.45;3.05;;;;;;;10.96;100.00;101311.63;5674600;26;20666;-73
2024/04/15 01:54:47;;;;;;;7.63;3.20;;;;;;;10.89;100.00;101296.50;5665791;26;20006;-72
2024/04/15 01:57:19;;;;;;;7.47;3.20;;;;;;;10.90;100.00;101304.22;5671903;26;20010;-74
2024/04/15 01:59:51;;;;;;;4.63;2.50;;;;;;;10.87;100.00;101301.88;5676818;26;20578;-73
2024/04/15 02:02:23;;;;;;;5.38;2.83;;;;;;;10.81;100.00;101298.88;5678281;26;20013;-72
2024/04/15 02:04:54;;;;;;;5.00;2.60;;;;;;;10.81;98.79;101294.47;5678819;26;20022;-76
2024/04/15 02:07:26;;;;;;;7.32;2.70;;;;;;;10.72;100.00;101271.63;5679082;26;20002;-75
2024/04/15 02:09:58;;;;;;;7.13;3.17;;;;;;;10.75;99.44;101276.59;5677370;26;20048;-75
2024/04/15 02:12:31;;;;;;;6.13;2.53;;;;;;;10.67;99.52;101269.34;5678446;26;20466;-73
2024/04/15 02:15:03;;;;;;;7.80;2.42;;;;;;;10.67;98.35;101268.50;5676190;26;20035;-75
2024/04/15 02:17:35;;;;;;;6.03;2.60;;;;;;;10.63;98.54;101262.69;5644858;26;20035;-74
2024/04/15 02:20:08;;;;;;;5.35;2.60;;;;;;;10.61;98.49;101264.59;5680083;26;20014;-75
2024/04/15 02:22:40;;;;;;;6.13;2.17;;;;;;;10.62;95.85;101266.25;5679278;26;20069;-74
2024/04/15 02:25:11;;;;;;;4.85;2.00;;;;;;;10.55;97.92;101262.44;5673484;26;20011;-75
2024/04/15 02:27:43;;;;;;;6.47;1.80;;;;;;;10.54;97.36;101255.56;5676125;26;20009;-75
2024/04/15 02:30:15;;;;;;;6.78;2.58;;;;;;;10.53;98.05;101258.28;5646938;26;20340;-75
2024/04/15 02:32:47;;;;;;;7.88;1.77;;;;;;;10.44;96.64;101252.78;5671990;26;20010;-74
2024/04/15 02:35:19;;;;;;;7.13;2.28;;;;;;;10.46;97.01;101247.47;5669032;26;20010;-75
2024/04/15 02:37:51;;;;;;;6.97;2.40;;;;;;;10.45;97.74;101246.63;5677357;26;20016;-73
2024/04/15 02:40:23;;;;;;;9.50;2.05;;;;;;;10.45;98.14;101245.78;5680379;26;20021;-73
2024/04/15 02:42:55;;;;;;;9.40;2.20;;;;;;;10.42;97.80;101240.78;5680907;26;19999;-74
2024/04/15 02:45:27;;;;;;;6.78;2.60;;;;;;;10.40;98.34;101240.91;5676466;26;20296;-74
2024/04/15 02:47:58;;;;;;;5.45;1.88;;;;;;;10.35;97.23;101240.44;5680652;26;20085;-74
2024/04/15 02:50:30;;;;;;;6.35;2.03;;;;;;;10.34;97.94;101241.38;5680133;26;20030;-75
2024/04/15 02:53:02;;;;;;;8.50;2.92;;;;;;;10.31;98.17;101238.19;5675555;26;20004;-74
2024/04/15 02:55:34;;;;;;;7.13;2.10;;;;;;;10.25;97.69;101242.09;5675864;26;20031;-74
2024/04/15 02:58:06;;;;;;;10.05;2.33;;;;;;;10.19;98.03;101232.03;5676081;26;20018;-75
2024/04/15 03:00:38;;;;;;;5.20;1.80;;;;;;;10.16;98.14;101242.78;5673723;26;20438;-74
2024/04/15 03:03:10;;;;;;;7.55;2.17;;;;;;;10.14;100.00;101229.78;5675697;26;20378;-74
2024/04/15 03:05:45;;;;;;;5.68;2.13;;;;;;;10.12;99.46;101228.25;5671771;26;20006;-73
2024/04/15 03:08:17;;;;;;;9.57;1.77;;;;;;;10.11;100.00;101221.31;5683415;26;20050;-73
2024/04/15 03:10:49;;;;;;;7.20;2.13;;;;;;;10.11;100.00;101226.56;5679190;26;20393;-75
2024/04/15 03:13:21;;;;;;;6.07;1.92;;;;;;;10.07;100.00;101212.88;5677075;26;20021;-73
2024/04/15 03:15:54;;;;;;;8.75;2.28;;;;;;;10.07;100.00;101222.50;5669066;26;20006;-74
2024/04/15 03:18:26;;;;;;;;;;;;;;;10.77;94.85;101201.31;5678181;26;20504;-75
2024/04/15 03:21:05;;;;;;;5.70;1.60;;;;;;;10.27;99.62;101203.53;5678085;26;19925;-74
2024/04/15 03:23:37;;;;;;;6.45;2.22;;;;;;;10.08;98.89;101195.41;5684536;26;20002;-74
2024/04/15 03:26:09;;;;;;;7.10;2.25;;;;;;;10.05;99.68;101199.09;5673984;26;20021;-73
2024/04/15 03:28:41;;;;;;;5.50;1.90;;;;;;;10.03;100.00;101198.34;5678123;26;20002;-74
2024/04/15 03:31:13;;;;;;;5.57;1.75;;;;;;;10.04;100.00;101201.81;5670411;26;20014;-74
2024/04/15 03:33:45;;;;;;;6.90;1.77;;;;;;;10.02;100.00;101190.63;5639727;26;20502;-74
2024/04/15 03:36:16;;;;;;;7.90;1.98;;;;;;;9.98;100.00;101175.16;5668350;26;20082;-74
2024/04/15 03:38:49;;;;;;;6.68;2.00;;;;;;;9.98;100.00;101174.31;5676876;26;20002;-74
2024/04/15 03:41:21;;;;;;;8.02;2.38;;;;;;;10.03;100.00;101179.19;5671630;26;20081;-74
2024/04/15 03:43:53;;;;;;;4.93;2.03;;;;;;;9.96;100.00;101170.97;5673530;26;20039;-74
2024/04/15 03:46:24;;;;;;;7.15;1.83;;;;;;;9.93;100.00;101161.59;5646983;26;20005;-74
2024/04/15 03:48:57;;;;;;;6.80;2.08;;;;;;;9.92;100.00;101159.09;5676029;26;20364;-74
2024/04/15 03:51:29;;;;;;;5.20;1.77;;;;;;;9.98;100.00;101162.06;5676564;26;20042;-75
2024/04/15 03:54:01;;;;;;;9.93;2.13;;;;;;;9.94;100.00;101158.03;5674318;26;20014;-74
2024/04/15 03:56:33;;;;;;;8.27;2.08;;;;;;;9.89;100.00;101152.31;5673896;26;20027;-73
2024/04/15 03:59:05;;;;;;;7.53;1.80;;;;;;;9.91;100.00;101144.34;5672082;26;20050;-73
2024/04/15 04:01:37;;;;;;;7.63;2.10;;;;;;;9.85;100.00;101134.34;5671985;26;20002;-73
2024/04/15 04:04:10;;;;;;;6.32;2.00;;;;;;;9.86;100.00;101138.63;5645462;26;20036;-72
2024/04/15 04:06:42;;;;;;;6.03;1.85;;;;;;;9.81;100.00;101131.16;5675809;26;20030;-73
2024/04/15 04:09:14;;;;;;;7.57;1.77;;;;;;;9.78;100.00;101127.94;5676252;26;20447;-74
2024/04/15 04:11:48;;;;;;;10.30;2.22;;;;;;;9.83;100.00;101126.63;5679077;26;20035;-74
2024/04/15 04:14:20;;;;;;;8.05;2.25;;;;;;;9.74;100.00;101128.16;5672452;26;20003;-73
2024/04/15 04:16:52;;;;;;;7.95;2.25;;;;;;;9.76;100.00;101133.28;5675593;26;20006;-74
2024/04/15 04:19:25;;;;;;;5.40;1.90;;;;;;;9.73;100.00;101125.66;5675743;26;20695;-74
2024/04/15 04:21:57;;;;;;;7.03;2.38;;;;;;;9.79;100.00;101122.56;5670467;26;20057;-74
2024/04/15 04:24:31;;;;;;;5.38;2.13;;;;;;;9.80;100.00;101119.00;5671995;26;20027;-74
2024/04/15 04:27:03;;;;;;;6.70;2.33;;;;;;;9.78;100.00;101114.84;5675089;26;20490;-74
2024/04/15 04:29:35;;;;;;;7.57;2.20;;;;;;;9.78;100.00;101107.00;5643618;26;20006;-74
2024/04/15 04:32:07;;;;;;;11.35;2.80;;;;;;;9.77;100.00;101100.09;5676523;26;20397;-74
2024/04/15 04:34:39;;;;;;;10.90;2.42;;;;;;;9.76;100.00;101101.88;5678406;26;20013;-74
2024/04/15 04:37:12;;;;;;;8.90;2.60;;;;;;;9.71;100.00;101083.91;5671557;26;20014;-73
2024/04/15 04:39:44;;;;;;;9.45;2.30;;;;;;;9.72;100.00;101084.75;5642281;26;20015;-74
2024/04/15 04:42:16;;;;;;;8.15;2.35;;;;;;;9.67;100.00;101087.72;5673215;26;20104;-74
2024/04/15 04:44:53;;;;;;;7.80;2.60;;;;;;;9.74;100.00;101082.84;5662996;26;20014;-74
2024/04/15 04:47:25;;;;;;;7.97;2.15;;;;;;;9.67;100.00;101090.34;5661163;26;20011;-74
2024/04/15 04:49:57;;;;;;;6.80;2.72;;;;;;;9.67;100.00;101086.91;5667696;26;20029;-74
2024/04/15 04:52:29;;;;;;;7.30;2.55;;;;;;;9.67;100.00;101086.91;5670324;26;19998;-72
2024/04/15 04:55:01;;;;;;;9.38;2.60;;;;;;;9.70;100.00;101086.66;5629797;26;20002;-72
2024/04/15 04:57:33;;;;;;;9.45;2.42;;;;;;;9.72;100.00;101093.41;5671964;26;20479;-73
2024/04/15 05:00:06;;;;;;;10.25;3.10;;;;;;;9.81;100.00;101093.66;5642851;26;20042;-74
2024/04/15 05:02:37;;;;;;;7.45;2.05;;;;;;;9.78;100.00;101083.44;5666282;26;20480;-74
2024/04/15 05:05:09;;;;;;;7.80;2.22;;;;;;;9.79;100.00;101087.72;5664948;26;20017;-73
2024/04/15 05:07:41;;;;;;;9.40;2.47;;;;;;;9.79;100.00;101075.47;5678001;26;20018;-73
2024/04/15 05:10:14;;;;;;;6.43;2.28;;;;;;;9.79;100.00;101061.56;5674599;26;20035;-74
2024/04/15 05:12:46;;;;;;;9.30;2.22;;;;;;;9.81;100.00;101065.72;5672386;26;20050;-74
2024/04/15 05:15:19;;;;;;;6.22;2.17;;;;;;;9.83;100.00;101074.28;5676563;26;20002;-74
2024/04/15 05:17:51;;;;;;;8.43;2.40;;;;;;;9.80;100.00;101057.97;5676296;26;20465;-74
2024/04/15 05:20:23;;;;;;;8.25;2.28;;;;;;;9.77;100.00;101061.66;5668997;26;20002;-72
2024/04/15 05:22:54;;;;;;;9.90;2.70;;;;;;;9.74;100.00;101057.53;5646992;26;20040;-74
2024/04/15 05:25:26;;;;;;;6.97;2.35;;;;;;;9.77;100.00;101058.22;5671404;26;20011;-72
2024/04/15 05:27:58;;;;;;;9.35;2.50;;;;;;;9.80;100.00;101057.97;5669400;26;20035;-72
2024/04/15 05:30:30;;;;;;;9.23;2.58;;;;;;;9.75;100.00;101053.13;5676550;26;20007;-74
2024/04/15 05:33:02;;;;;;;7.28;2.20;;;;;;;9.79;100.00;101057.16;5674224;26;20011;-75
2024/04/15 05:35:34;;;;;;;9.10;2.40;;;;;;;9.79;100.00;101051.94;5677050;26;20042;-72
2024/04/15 05:38:06;;;;;;;7.57;2.20;;;;;;;9.81;100.00;101057.03;5679331;26;20006;-74
2024/04/15 05:40:38;;;;;;;8.75;2.75;;;;;;;9.83;100.00;101045.50;5674464;26;20340;-73
2024/04/15 05:43:10;;;;;;;7.65;2.40;;;;;;;9.85;100.00;101041.00;5680771;26;20002;-73
2024/04/15 05:45:43;;;;;;;9.05;2.60;;;;;;;9.89;100.00;101038.97;5681228;26;20493;-73
2024/04/15 05:48:17;;;;;;;8.10;2.00;;;;;;;9.93;100.00;101038.59;5675290;26;20017;-73
2024/04/15 05:50:49;;;;;;;8.75;2.63;;;;;;;9.88;100.00;101037.28;5679396;26;20070;-72
2024/04/15 05:53:20;;;;;;;6.78;2.20;;;;;;;9.90;100.00;101041.44;5646916;26;20523;-73
2024/04/15 05:55:52;;;;;;;7.55;2.70;;;;;;;9.90;100.00;101038.81;5677389;26;20010;-73
2024/04/15 05:58:26;;;;;;;7.38;2.30;;;;;;;9.94;100.00;101037.63;5676671;26;20013;-74
2024/04/15 06:00:58;;;;;;;9.10;2.70;;;;;;;9.94;100.00;101042.88;5676338;26;20042;-74
2024/04/15 06:03:30;;;;;;;10.77;2.22;;;;;;;9.92;100.00;101034.28;5679615;26;20411;-73
2024/04/15 06:06:02;;;;;;;6.15;2.33;;;;;;;9.97;100.00;101031.34;5678150;26;20010;-73
2024/04/15 06:08:33;;;;;;;7.40;2.35;;;;;;;10.02;100.00;101038.81;5679400;26;20003;-74
2024/04/15 06:11:05;;;;;;;9.77;2.50;;;;;;;10.02;100.00;101023.94;5669826;26;20043;-74
2024/04/15 06:13:37;;;;;;;6.65;2.40;;;;;;;10.10;100.00;101015.47;5640826;26;20013;-72
2024/04/15 06:16:09;;;;;;;8.45;2.67;;;;;;;10.16;100.00;101025.47;5675357;26;20013;-73
2024/04/15 06:18:41;;;;;;;9.55;2.38;;;;;;;10.20;100.00;101019.03;5676538;26;19998;-74
2024/04/15 06:21:13;;;;;;;8.77;2.78;;;;;;;10.25;100.00;101024.75;5676617;26;20472;-74
2024/04/15 06:23:45;;;;;;;7.85;2.33;;;;;;;10.26;100.00;101013.31;5644291;26;20018;-73
2024/04/15 06:26:17;;;;;;;5.43;2.40;;;;;;;10.33;100.00;101008.41;5641463;26;20006;-74
2024/04/15 06:28:49;;;;;;;8.98;2.47;;;;;;;10.39;100.00;101006.13;5641975;26;20017;-74
2024/04/15 06:31:21;;;;;;;8.80;2.45;;;;;;;10.41;100.00;101003.38;5681858;26;20029;-73
2024/04/15 06:33:53;;;;;;;7.53;2.22;;;;;;;10.52;100.00;100997.28;5678634;26;19998;-74
2024/04/15 06:36:27;;;;;;;9.93;2.65;;;;;;;10.63;100.00;100992.81;5677502;26;20068;-73
2024/04/15 06:38:59;;;;;;;8.38;2.72;;;;;;;10.63;100.00;100979.69;5675962;26;20062;-73
2024/04/15 06:41:30;;;;;;;9.82;2.40;;;;;;;10.71;100.00;100971.19;5676025;26;20002;-74
2024/04/15 06:44:02;;;;;;;11.27;2.72;;;;;;;10.80;100.00;100969.63;5676607;26;20017;-74
2024/04/15 06:46:35;;;;;;;8.52;2.47;;;;;;;10.93;100.00;100973.69;5677111;26;19999;-74
2024/04/15 06:49:06;;;;;;;12.73;3.08;;;;;;;11.05;100.00;100971.00;5674779;26;20472;-73
2024/04/15 06:51:39;;;;;;;7.90;2.58;;;;;;;11.14;100.00;100957.94;5679331;26;20546;-72
2024/04/15 06:54:11;;;;;;;9.53;2.50;;;;;;;11.30;100.00;100959.25;5679767;26;20058;-74
2024/04/15 06:56:43;;;;;;;10.15;2.95;;;;;;;11.35;100.00;100951.81;5677159;26;20006;-73
2024/04/15 06:59:15;;;;;;;9.85;2.90;;;;;;;11.47;100.00;100944.66;5646006;26;20049;-75
2024/04/15 07:01:46;;;;;;;11.18;3.13;;;;;;;11.48;99.48;100933.19;5676824;26;20039;-73
2024/04/15 07:04:18;;;;;;;6.97;2.42;;;;;;;11.64;100.00;100931.75;5676866;26;20347;-74
2024/04/15 07:06:50;;;;;;;8.60;2.65;;;;;;;11.74;100.00;100929.13;5679028;26;20026;-73
2024/04/15 07:09:23;;;;;;;8.25;2.35;;;;;;;11.89;99.27;100917.31;5673044;26;20021;-74
2024/04/15 07:11:54;;;;;;;8.77;2.63;;;;;;;11.98;97.15;100907.78;5677503;26;20031;-74
2024/04/15 07:14:26;;;;;;;8.95;2.53;;;;;;;12.19;96.21;100912.88;5673641;26;20446;-73
2024/04/15 07:16:58;;;;;;;10.13;2.72;;;;;;;12.43;94.20;100906.38;5678331;26;20824;-74
2024/04/15 07:19:30;;;;;;;9.50;2.53;;;;;;;12.60;92.75;100900.38;5679869;26;19995;-74
2024/04/15 07:22:02;;;;;;;9.82;3.08;;;;;;;12.69;89.64;100902.19;5676800;26;20027;-75
2024/04/15 07:24:34;;;;;;;9.70;3.00;;;;;;;12.71;88.58;100896.78;5673409;26;20497;-73
2024/04/15 07:27:06;;;;;;;10.68;3.28;;;;;;;12.52;84.35;100887.13;5677692;26;20074;-74
2024/04/15 07:29:38;;;;;;;10.17;2.67;;;;;;;12.58;87.23;100879.53;5673965;26;20546;-74
2024/04/15 07:32:10;;;;;;;7.05;2.50;;;;;;;12.61;89.17;100875.75;5676780;26;20041;-75
2024/04/15 07:34:44;;;;;;;6.28;2.10;;;;;;;12.57;87.10;100861.25;5676439;26;20539;-74
2024/04/15 07:37:16;;;;;;;9.35;2.50;;;;;;;12.55;87.08;100855.31;5680109;26;20025;-74
2024/04/15 07:39:48;;;;;;;9.63;2.40;;;;;;;12.55;84.54;100848.25;5675544;26;20054;-73
2024/04/15 07:42:20;;;;;;;7.32;2.75;;;;;;;12.62;85.00;100845.91;5679918;26;20468;-73
2024/04/15 07:44:52;;;;;;;7.88;2.78;;;;;;;12.59;82.77;100828.59;5641776;26;20059;-74
2024/04/15 07:47:24;;;;;;;8.20;2.50;;;;;;;12.69;84.50;100828.59;5680027;26;20034;-74
2024/04/15 07:49:56;;;;;;;11.57;2.30;;;;;;;12.67;84.49;100820.00;5675997;26;20006;-72
2024/04/15 07:52:28;;;;;;;9.90;3.20;;;;;;;12.82;84.61;100813.28;5675272;26;20003;-74
2024/04/15 07:55:00;;;;;;;7.40;2.50;;;;;;;12.80;81.91;100815.22;5675698;26;20398;-74
2024/04/15 07:57:32;;;;;;;5.93;1.90;;;;;;;12.87;81.39;100810.22;5676551;26;20030;-75
2024/04/15 08:00:06;;;;;;;6.97;2.15;;;;;;;12.89;82.07;100798.59;5682103;26;20035;-74
2024/04/15 08:02:38;;;;;;;8.48;1.95;;;;;;;12.99;79.53;100806.41;5674544;26;20034;-74
2024/04/15 08:05:10;;;;;;;8.32;2.08;;;;;;;13.14;77.84;100804.13;5640401;26;20440;-74
2024/04/15 08:07:42;;;;;;;9.80;2.13;;;;;;;13.35;78.76;100796.81;5674639;26;20010;-75
2024/04/15 08:10:14;;;;;;;7.57;2.22;;;;;;;13.33;74.92;100795.31;5677458;26;20456;-74
2024/04/15 08:12:46;;;;;;;8.52;2.00;;;;;;;13.29;73.99;100793.94;5677172;26;20367;-72
2024/04/15 08:15:18;;;;;;;7.55;2.45;;;;;;;13.29;74.15;100794.78;5674710;26;20034;-74
2024/04/15 08:17:49;;;;;;;11.10;2.55;;;;;;;13.31;73.13;100784.13;5677832;26;20017;-74
2024/04/15 08:20:22;;;;;;;5.85;2.33;;;;;;;13.37;72.14;100775.63;5678601;26;20008;-73
2024/04/15 08:22:54;;;;;;;11.50;2.20;;;;;;;13.44;72.64;100776.66;5676498;26;20035;-74
2024/04/15 08:25:26;;;;;;;8.05;2.33;;;;;;;13.47;72.33;100765.84;5672200;26;20007;-74
2024/04/15 08:27:58;;;;;;;10.48;2.65;;;;;;;13.54;73.51;100760.81;5674332;26;20026;-74
2024/04/15 08:30:30;;;;;;;6.88;1.90;;;;;;;13.51;69.81;100763.75;5677402;26;20009;-73
2024/04/15 08:33:03;;;;;;;10.23;2.58;;;;;;;13.46;68.63;100744.97;5675629;26;20022;-74
2024/04/15 08:35:35;;;;;;;6.68;2.20;;;;;;;13.60;68.96;100749.69;5673710;26;20037;-72
2024/04/15 08:38:07;;;;;;;6.15;2.15;;;;;;;13.52;66.03;100742.53;5644572;26;20009;-76
2024/04/15 08:40:48;;;;;;;9.55;2.05;;;;;;;13.75;68.40;100737.63;5680590;26;20002;-73
2024/04/15 08:43:22;;;;;;;6.68;1.90;;;;;;;13.78;67.73;100736.47;5672579;26;20031;-76
2024/04/15 08:45:57;;;;;;;6.78;2.10;;;;;;;13.94;67.11;100725.22;5671786;26;20014;-73
2024/04/15 08:48:29;;;;;;;9.45;2.40;;;;;;;13.93;65.61;100716.50;5679111;26;20035;-74
2024/04/15 08:51:01;;;;;;;4.82;1.90;;;;;;;14.00;65.22;100708.81;5679935;26;20002;-72
2024/04/15 08:53:34;;;;;;;8.43;2.05;;;;;;;14.11;64.38;100698.84;5680064;26;20348;-74
2024/04/15 08:56:06;;;;;;;4.10;1.83;;;;;;;14.09;61.37;100690.28;5670103;26;20055;-76
2024/04/15 08:58:41;;;;;;;6.20;1.80;;;;;;;14.10;61.09;100691.09;5680177;26;20035;-73
2024/04/15 09:01:13;;;;;;;5.95;2.05;;;;;;;14.03;60.22;100690.06;5681066;26;20475;-74
2024/04/15 09:03:46;;;;;;;7.03;1.60;;;;;;;14.08;60.21;100685.16;5679819;26;20394;-76
2024/04/15 09:06:18;;;;;;;7.80;2.10;;;;;;;14.16;60.57;100664.09;5678593;26;20307;-75
2024/04/15 09:08:50;;;;;;;4.05;1.50;;;;;;;14.46;61.46;100664.56;5679048;26;20062;-75
2024/04/15 09:11:22;;;;;;;6.72;2.22;;;;;;;14.73;61.63;100642.41;5670008;26;20371;-76
2024/04/15 09:13:54;;;;;;;7.00;1.75;;;;;;;14.94;59.23;100645.44;5673009;26;20011;-73
2024/04/15 09:16:28;;;;;;;8.25;2.03;;;;;;;15.16;57.63;100643.97;5679345;26;20460;-75
2024/04/15 09:19:06;;;;;;;6.97;1.92;;;;;;;15.25;55.17;100640.31;5671984;26;20598;-75
2024/04/15 09:21:38;;;;;;;9.00;2.25;;;;;;;15.13;53.87;100627.63;5639224;26;20031;-75
2024/04/15 09:24:11;;;;;;;6.82;1.88;;;;;;;15.30;55.91;100623.97;5644421;26;20434;-75
2024/04/15 09:26:42;;;;;;;8.32;1.70;;;;;;;15.19;54.19;100619.88;5667087;26;20729;-76
2024/04/15 09:29:14;;;;;;;4.75;1.60;;;;;;;14.93;53.36;100620.03;5675467;26;20010;-76
2024/04/15 09:31:47;;;;;;;5.97;2.05;;;;;;;14.83;53.74;100609.63;5673705;26;20042;-74
2024/04/15 09:34:20;;;;;;;6.15;1.70;;;;;;;14.73;53.12;100595.78;5680547;26;20031;-75
2024/04/15 09:36:54;;;;;;;5.95;1.52;;;;;;;14.69;54.37;100575.16;5640923;26;20066;-75
2024/04/15 09:39:27;;;;;;;5.93;1.25;;;;;;;14.53;54.17;100565.44;5675291;26;20030;-74
2024/04/15 09:42:00;;;;;;;4.85;1.50;;;;;;;14.48;53.99;100571.16;5643201;26;20030;-75
2024/04/15 09:44:32;;;;;;;6.03;1.55;;;;;;;14.38;55.36;100554.66;5643960;26;20108;-76
2024/04/15 09:47:05;;;;;;;6.50;1.40;;;;;;;14.56;54.29;100555.38;5674269;26;20022;-76
2024/04/15 09:49:37;;;;;;;;;;;;;;;15.43;54.47;100534.56;5674990;26;20039;-76
2024/04/15 09:52:22;;;;;;;7.18;1.80;;;;;;;15.09;53.51;100535.59;5676585;26;19928;-75
2024/04/15 09:55:21;;;;;;;5.43;1.65;;;;;;;15.29;53.44;100529.97;5673902;26;20412;-74
2024/04/15 09:57:56;;;;;;;6.10;1.38;;;;;;;14.85;53.80;100506.63;5681707;26;20368;-76
2024/04/15 10:00:29;;;;;;;7.32;1.98;;;;;;;14.77;54.03;100501.34;5678871;26;20374;-76
2024/04/15 10:03:08;;;;;;;6.32;1.40;;;;;;;14.85;54.25;100498.72;5682452;26;20773;-75
2024/04/15 10:05:41;;;;;;;8.93;1.80;;;;;;;14.70;52.72;100487.16;5646305;26;20023;-76
2024/04/15 10:08:13;;;;;;;6.20;2.13;;;;;;;14.72;52.32;100483.38;5676058;26;20033;-76
2024/04/15 10:10:46;;;;;;;6.28;1.77;;;;;;;14.71;50.83;100455.38;5676860;26;20058;-75
2024/04/15 10:13:18;;;;;;;7.32;1.75;;;;;;;14.60;51.10;100455.72;5681355;26;20249;-75
2024/04/15 10:15:58;;;;;;;4.95;1.63;;;;;;;14.89;51.81;100451.69;5679122;26;20026;-74
2024/04/15 10:18:30;;;;;;;8.88;2.13;;;;;;;14.78;51.84;100439.72;5678632;26;20037;-75
2024/04/15 10:21:03;;;;;;;5.67;1.50;;;;;;;14.79;51.34;100422.88;5673365;26;20013;-75
2024/04/15 10:23:35;;;;;;;6.47;1.52;;;;;;;14.80;51.38;100422.72;5682600;26;20285;-76
2024/04/15 10:26:08;;;;;;;7.82;2.00;;;;;;;14.74;51.20;100417.31;5672811;26;20488;-76
2024/04/15 10:28:40;;;;;;;8.80;1.95;;;;;;;14.73;51.57;100407.72;5678311;26;20035;-75
2024/04/15 10:31:13;;;;;;;13.27;1.77;;;;;;;14.62;52.09;100400.97;5681038;26;20015;-75
2024/04/15 10:33:50;;;;;;;9.60;2.35;;;;;;;14.66;51.81;100407.59;5644754;26;20035;-75
2024/04/15 10:36:29;;;;;;;6.95;1.58;;;;;;;14.58;51.78;100400.53;5679646;26;20042;-76
2024/04/15 10:39:04;;;;;;;8.70;1.60;;;;;;;14.53;52.35;100383.53;5677179;26;20045;-74
2024/04/15 10:41:38;;;;;;;6.65;1.30;;;;;;;14.42;52.35;100386.50;5647255;26;20016;-74
2024/04/15 10:44:10;;;;;;;7.13;1.40;;;;;;;14.38;52.22;100374.63;5676831;26;20057;-76
2024/04/15 10:46:47;;;;;;;9.30;1.50;;;;;;;14.38;52.65;100346.47;5677831;26;20042;-77
2024/04/15 10:49:19;;;;;;;4.30;1.38;;;;;;;14.40;52.76;100344.50;5673252;26;20054;-75
2024/04/15 10:51:51;;;;;;;8.00;1.42;;;;;;;14.41;53.62;100330.31;5682553;26;20395;-75
2024/04/15 10:54:23;;;;;;;6.90;1.48;;;;;;;14.33;53.05;100331.16;5677913;26;20002;-76
2024/04/15 10:56:55;;;;;;;5.05;1.30;;;;;;;14.29;53.33;100319.31;5675865;26;19999;-75
2024/04/15 10:59:28;;;;;;;7.53;1.35;;;;;;;14.29;53.46;100297.41;5672535;26;20003;-75
2024/04/15 11:02:00;;;;;;;;;;;;;;;15.02;53.63;100302.47;5683954;26;20476;-76
2024/04/15 11:04:32;;;;;;;5.53;1.42;;;;;;;14.24;59.12;100302.34;5674988;26;19998;-76
2024/04/15 11:07:04;;;;;;;5.55;1.33;;;;;;;14.05;62.28;100304.38;5675265;26;20355;-76
2024/04/15 11:09:36;;;;;;;6.10;1.70;;;;;;;13.77;64.77;100303.84;5678545;26;20027;-75
2024/04/15 11:12:09;;;;;;;5.05;1.65;;;;;;;13.59;67.15;100305.81;5674183;26;20205;-75
2024/04/15 11:14:41;;;;;;;4.65;1.40;;;;;;;13.45;71.24;100303.81;5682060;26;20033;-76
2024/04/15 11:17:12;;;;;;;4.40;1.58;;;;;;;13.34;74.92;100305.78;5676035;26;20002;-74
2024/04/15 11:19:44;;;;;;;6.28;1.40;;;;;;;13.25;80.39;100298.03;5637276;26;20003;-74
2024/04/15 11:22:17;;;;;;;4.88;1.45;;;;;;;13.09;79.37;100283.00;5669101;26;20560;-76
2024/04/15 11:24:52;;;;;;;6.20;1.48;;;;;;;13.15;82.17;100263.97;5675904;26;20384;-76
2024/04/15 11:27:27;;;;;;;5.57;1.27;;;;;;;13.13;85.60;100266.72;5679786;26;20563;-75
2024/04/15 11:30:01;;;;;;;4.60;1.50;;;;;;;13.01;82.97;100269.81;5643322;26;20472;-75
2024/04/15 11:32:33;;;;;;;9.13;1.83;;;;;;;13.00;88.34;100253.22;5677359;26;20042;-74
2024/04/15 11:35:06;;;;;;;4.45;1.48;;;;;;;13.06;87.82;100238.59;5676658;26;20037;-74
2024/04/15 11:37:38;;;;;;;4.07;1.30;;;;;;;13.06;87.41;100228.91;5676130;26;20039;-74
2024/04/15 11:40:12;;;;;;;5.60;1.50;;;;;;;12.99;85.45;100229.72;5679382;26;20034;-76
2024/04/15 11:42:44;;;;;;;4.70;1.20;;;;;;;12.90;86.51;100203.41;5673673;26;20405;-74
2024/04/15 11:45:16;;;;;;;5.68;1.40;;;;;;;13.01;84.51;100202.28;5677092;26;20344;-74